createdAt,value
2022-08-26T00:02:23.869Z,6.85
2022-08-26T00:04:57.545Z,5.45
2022-08-26T00:07:32.551Z,4.55
2022-08-26T00:10:08.756Z,5.13
2022-08-26T00:12:43.262Z,6.07
2022-08-26T00:15:23.086Z,4.70
2022-08-26T00:17:57.976Z,5.78
2022-08-26T00:20:35.461Z,5.25
2022-08-26T00:23:09.491Z,6.05
2022-08-26T00:25:44.089Z,4.60
2022-08-26T00:28:19.030Z,4.95
2022-08-26T00:30:58.953Z,6.65
2022-08-26T00:33:32.870Z,4.20
2022-08-26T00:36:08.378Z,5.10
2022-08-26T00:38:53.672Z,4.72
2022-08-26T00:41:28.061Z,4.32
2022-08-26T00:44:05.509Z,4.38
2022-08-26T00:46:46.871Z,5.90
2022-08-26T00:49:30.058Z,6.15
2022-08-26T00:52:09.849Z,4.32
2022-08-26T00:54:58.371Z,6.15
2022-08-26T00:57:36.588Z,5.22
2022-08-26T01:00:17.228Z,5.95
2022-08-26T01:02:55.805Z,5.53
2022-08-26T01:05:31.499Z,5.35
2022-08-26T01:08:05.618Z,4.72
2022-08-26T01:10:39.756Z,4.75
2022-08-26T01:13:14.845Z,4.82
2022-08-26T01:16:02.116Z,4.53
2022-08-26T01:18:37.601Z,5.10
2022-08-26T01:21:22.581Z,5.53
2022-08-26T01:23:59.991Z,6.28
2022-08-26T01:26:41.007Z,5.55
2022-08-26T01:29:20.183Z,5.63
2022-08-26T01:31:57.586Z,4.95
2022-08-26T01:34:36.256Z,4.88
2022-08-26T01:37:16.243Z,5.05
2022-08-26T01:39:54.933Z,5.63
2022-08-26T01:42:31.572Z,4.53
2022-08-26T01:45:14.323Z,5.97
2022-08-26T01:47:56.825Z,5.35
2022-08-26T01:50:36.786Z,5.38
2022-08-26T01:53:16.828Z,6.22
2022-08-26T01:56:00.493Z,6.47
2022-08-26T01:58:40.798Z,5.18
2022-08-26T02:01:15.499Z,5.15
2022-08-26T02:03:59.955Z,5.10
2022-08-26T02:06:34.761Z,5.43
2022-08-26T02:09:09.569Z,5.32
2022-08-26T02:11:45.969Z,6.80
2022-08-26T02:14:24.172Z,5.20
2022-08-26T02:17:04.290Z,5.55
2022-08-26T02:19:46.532Z,4.82
2022-08-26T02:22:24.930Z,6.80
2022-08-26T02:25:07.486Z,5.00
2022-08-26T02:27:43.807Z,6.82
2022-08-26T02:30:24.260Z,6.75
2022-08-26T02:33:03.870Z,7.60
2022-08-26T02:35:45.393Z,6.72
2022-08-26T02:38:20.119Z,7.53
2022-08-26T02:40:53.569Z,8.52
2022-08-26T02:43:32.910Z,7.75
2022-08-26T02:46:07.487Z,7.75
2022-08-26T02:48:40.941Z,8.23
2022-08-26T02:51:14.517Z,8.77
2022-08-26T02:53:48.335Z,9.95
2022-08-26T02:56:22.124Z,12.10
2022-08-26T02:58:57.096Z,10.88
2022-08-26T03:01:35.543Z,12.68
2022-08-26T03:04:13.011Z,13.40
2022-08-26T03:06:52.953Z,14.85
2022-08-26T03:09:28.093Z,13.63
2022-08-26T03:12:02.202Z,15.43
2022-08-26T03:14:37.014Z,14.73
2022-08-26T03:17:10.724Z,14.77
2022-08-26T03:19:44.488Z,15.20
2022-08-26T03:22:18.992Z,16.60
2022-08-26T03:24:54.322Z,16.92
2022-08-26T03:27:28.086Z,15.30
2022-08-26T03:30:20.995Z,16.02
2022-08-26T03:32:54.472Z,16.42
2022-08-26T03:35:28.768Z,18.15
2022-08-26T03:38:04.841Z,18.92
2022-08-26T03:40:40.025Z,19.83
2022-08-26T03:43:16.644Z,19.00
2022-08-26T03:45:52.394Z,18.05
2022-08-26T03:48:26.612Z,20.00
2022-08-26T03:51:01.175Z,20.95
2022-08-26T03:53:36.861Z,21.70
2022-08-26T03:56:10.830Z,22.60
2022-08-26T03:58:45.899Z,21.00
2022-08-26T04:01:23.018Z,19.38
2022-08-26T04:04:00.176Z,23.07
2022-08-26T04:06:39.055Z,21.17
2022-08-26T04:09:19.707Z,21.42
2022-08-26T04:11:54.891Z,22.38
2022-08-26T04:14:31.172Z,25.50
2022-08-26T04:17:07.744Z,23.15
2022-08-26T04:19:42.259Z,24.13
2022-08-26T04:22:15.969Z,26.38
2022-08-26T04:24:58.665Z,24.88
2022-08-26T04:27:32.365Z,29.83
2022-08-26T04:30:08.886Z,26.27
2022-08-26T04:32:44.853Z,28.48
2022-08-26T04:35:20.912Z,30.20
2022-08-26T04:37:59.023Z,33.10
2022-08-26T04:40:32.726Z,33.83
2022-08-26T04:43:07.125Z,35.40
2022-08-26T04:45:43.638Z,34.38
2022-08-26T04:48:21.544Z,34.55
2022-08-26T04:50:55.762Z,36.45
2022-08-26T04:53:30.558Z,35.13
2022-08-26T04:56:05.815Z,33.00
2022-08-26T04:58:41.788Z,34.40
2022-08-26T05:01:17.334Z,33.53
2022-08-26T05:03:57.436Z,35.88
2022-08-26T05:06:37.013Z,31.98
2022-08-26T05:09:18.733Z,34.03
2022-08-26T05:11:52.830Z,31.63
2022-08-26T05:14:28.393Z,33.80
2022-08-26T05:17:02.967Z,35.10
2022-08-26T05:19:38.580Z,33.78
2022-08-26T05:22:18.375Z,32.50
2022-08-26T05:24:53.044Z,32.92
2022-08-26T05:27:28.725Z,32.65
2022-08-26T05:30:09.137Z,32.40
2022-08-26T05:32:44.600Z,31.67
2022-08-26T05:35:20.617Z,29.77
2022-08-26T05:37:56.332Z,26.30
2022-08-26T05:40:33.392Z,27.20
2022-08-26T05:43:11.760Z,25.55
2022-08-26T05:45:48.999Z,26.33
2022-08-26T05:48:24.485Z,23.73
2022-08-26T05:51:06.091Z,25.05
2022-08-26T05:53:43.861Z,23.98
2022-08-26T05:56:29.166Z,23.48
2022-08-26T05:59:05.510Z,21.08
2022-08-26T06:01:47.259Z,22.50
2022-08-26T06:04:21.364Z,23.75
2022-08-26T06:06:57.323Z,24.65
2022-08-26T06:09:31.871Z,21.80
2022-08-26T06:12:11.277Z,22.27
2022-08-26T06:14:49.034Z,21.02
2022-08-26T06:17:23.210Z,21.63
2022-08-26T06:19:59.784Z,21.92
2022-08-26T06:22:58.662Z,23.23
2022-08-26T06:25:39.629Z,23.65
2022-08-26T06:28:18.382Z,20.25
2022-08-26T06:30:56.008Z,20.42
2022-08-26T06:33:43.695Z,19.40
2022-08-26T06:36:20.529Z,22.27
2022-08-26T06:39:04.640Z,23.20
2022-08-26T06:41:43.370Z,22.30
2022-08-26T06:44:22.311Z,24.42
2022-08-26T06:46:56.243Z,23.08
2022-08-26T06:49:30.958Z,24.27
2022-08-26T06:52:12.163Z,23.30
2022-08-26T06:54:55.039Z,24.60
2022-08-26T06:57:34.868Z,25.13
2022-08-26T07:00:23.976Z,26.90
2022-08-26T07:02:58.329Z,28.02
2022-08-26T07:05:33.926Z,25.70
2022-08-26T07:08:08.892Z,22.58
2022-08-26T07:10:45.695Z,22.77
2022-08-26T07:13:29.896Z,21.38
2022-08-26T07:16:06.240Z,20.08
2022-08-26T07:18:44.948Z,23.17
2022-08-26T07:21:22.990Z,23.05
2022-08-26T07:24:01.227Z,24.25
2022-08-26T07:26:44.538Z,25.25
2022-08-26T07:29:19.124Z,24.77
2022-08-26T07:32:02.390Z,23.08
2022-08-26T07:34:45.696Z,22.13
2022-08-26T07:37:22.957Z,22.38
2022-08-26T07:39:59.344Z,21.70
2022-08-26T07:42:36.137Z,22.77
2022-08-26T07:45:10.685Z,22.05
2022-08-26T07:47:48.046Z,19.42
2022-08-26T07:50:48.896Z,21.48
2022-08-26T07:53:26.697Z,20.35
2022-08-26T07:56:10.798Z,22.40
2022-08-26T07:59:14.061Z,20.17
2022-08-26T08:02:07.074Z,17.88
2022-08-26T08:04:58.311Z,17.85
2022-08-26T08:07:44.513Z,17.30
2022-08-26T08:10:29.017Z,17.52
2022-08-26T08:13:13.391Z,18.02
2022-08-26T08:16:04.187Z,18.00
2022-08-26T08:18:46.833Z,15.55
2022-08-26T08:21:43.102Z,15.27
2022-08-26T08:24:18.657Z,14.95
2022-08-26T08:26:56.481Z,16.02
2022-08-26T08:29:35.250Z,16.40
2022-08-26T08:32:16.109Z,18.15
2022-08-26T08:34:56.635Z,18.17
2022-08-26T08:37:46.499Z,16.73
2022-08-26T08:40:39.753Z,18.60
2022-08-26T08:43:37.422Z,20.10
2022-08-26T08:46:20.483Z,16.65
2022-08-26T08:49:05.993Z,17.20
2022-08-26T08:51:53.591Z,16.48
2022-08-26T08:54:48.061Z,15.57
2022-08-26T08:57:46.567Z,19.05
2022-08-26T09:00:31.145Z,15.98
2022-08-26T09:03:25.069Z,17.50
2022-08-26T09:06:37.711Z,18.80
2022-08-26T09:09:37.821Z,18.23
2022-08-26T09:12:29.757Z,16.02
2022-08-26T09:15:40.707Z,17.15
2022-08-26T09:18:38.016Z,13.50
2022-08-26T09:21:26.897Z,13.63
2022-08-26T09:24:15.285Z,12.98
2022-08-26T09:27:05.750Z,13.93
2022-08-26T09:29:50.464Z,14.00
2022-08-26T09:32:55.948Z,15.32
2022-08-26T09:35:48.724Z,13.55
2022-08-26T09:38:38.349Z,12.98
2022-08-26T09:41:27.791Z,13.73
2022-08-26T09:44:19.314Z,14.73
2022-08-26T09:47:04.904Z,15.10
2022-08-26T09:50:02.882Z,17.85
2022-08-26T09:52:43.180Z,16.95
2022-08-26T09:55:36.986Z,17.77
2022-08-26T09:58:38.728Z,17.98
2022-08-26T10:01:42.315Z,16.35
2022-08-26T10:04:45.642Z,15.38
2022-08-26T10:07:47.242Z,14.32
2022-08-26T10:10:41.261Z,13.85
2022-08-26T10:13:35.963Z,14.27
2022-08-26T10:16:36.402Z,13.88
2022-08-26T10:19:29.145Z,12.57
2022-08-26T10:22:32.829Z,11.07
2022-08-26T10:25:24.704Z,11.50
2022-08-26T10:28:28.084Z,10.73
2022-08-26T10:31:38.283Z,10.20
2022-08-26T10:34:23.041Z,8.75
2022-08-26T10:37:14.472Z,9.20
2022-08-26T10:40:03.763Z,7.03
2022-08-26T10:42:49.249Z,7.03
2022-08-26T10:45:36.452Z,8.13
2022-08-26T10:48:19.093Z,8.13
2022-08-26T10:51:11.767Z,7.65
2022-08-26T10:53:58.701Z,6.88
2022-08-26T10:56:53.655Z,8.27
2022-08-26T10:59:53.418Z,6.75
2022-08-26T11:02:39.567Z,8.20
2022-08-26T11:05:24.702Z,8.63
2022-08-26T11:08:53.974Z,9.15
2022-08-26T11:11:58.801Z,7.72
2022-08-26T11:14:53.276Z,8.40
2022-08-26T11:18:01.750Z,8.68
2022-08-26T11:20:45.203Z,9.10
2022-08-26T11:23:52.885Z,7.85
2022-08-26T11:26:56.115Z,6.72
2022-08-26T11:30:08.710Z,7.32
2022-08-26T11:32:54.319Z,6.07
2022-08-26T11:35:55.538Z,5.78
2022-08-26T11:38:36.762Z,6.85
2022-08-26T11:41:25.386Z,6.07
2022-08-26T11:44:09.189Z,6.07
2022-08-26T11:47:01.943Z,5.53
2022-08-26T11:49:40.034Z,5.35
2022-08-26T11:52:25.214Z,6.43
2022-08-26T11:55:10.301Z,7.85
2022-08-26T11:57:49.261Z,7.45
2022-08-26T12:00:33.805Z,6.18
2022-08-26T12:03:11.938Z,8.75
2022-08-26T12:05:51.394Z,7.43
2022-08-26T12:08:34.490Z,6.22
2022-08-26T12:11:17.696Z,4.95
2022-08-26T12:14:05.693Z,5.07
2022-08-26T12:16:57.086Z,6.45
2022-08-26T12:19:34.151Z,4.32
2022-08-26T12:22:21.525Z,6.78
2022-08-26T12:25:01.940Z,5.07
2022-08-26T12:27:41.498Z,5.68
2022-08-26T12:30:20.295Z,4.53
2022-08-26T12:33:22.986Z,5.10
2022-08-26T12:36:02.285Z,7.40
2022-08-26T12:38:44.509Z,4.60
2022-08-26T12:41:45.380Z,4.97
2022-08-26T12:44:53.180Z,4.65
2022-08-26T12:47:43.015Z,4.82
2022-08-26T12:50:22.865Z,5.97
2022-08-26T12:53:02.375Z,5.82
2022-08-26T12:55:42.276Z,4.32
2022-08-26T12:58:29.848Z,4.32
2022-08-26T13:01:24.318Z,3.85
2022-08-26T13:03:58.133Z,5.35
2022-08-26T13:06:34.033Z,5.03
2022-08-26T13:09:32.664Z,5.40
2022-08-26T13:12:07.949Z,5.50
2022-08-26T13:14:41.686Z,4.13
2022-08-26T13:17:15.315Z,3.95
2022-08-26T13:19:49.314Z,7.10
2022-08-26T13:22:26.900Z,4.32
2022-08-26T13:25:08.331Z,6.07
2022-08-26T13:27:47.171Z,5.35
2022-08-26T13:30:39.548Z,5.38
2022-08-26T13:33:21.391Z,3.42
2022-08-26T13:35:59.080Z,4.18
2022-08-26T13:38:35.932Z,4.88
2022-08-26T13:41:17.542Z,4.22
2022-08-26T13:44:02.933Z,6.05
2022-08-26T13:46:38.036Z,5.22
2022-08-26T13:49:14.625Z,4.65
2022-08-26T13:51:50.670Z,4.80
2022-08-26T13:54:25.683Z,4.35
2022-08-26T13:57:00.671Z,3.97
2022-08-26T13:59:35.365Z,4.50
2022-08-26T14:02:11.045Z,4.50
2022-08-26T14:04:54.920Z,6.03
2022-08-26T14:07:30.193Z,3.35
2022-08-26T14:10:14.303Z,3.72
2022-08-26T14:12:50.113Z,4.80
2022-08-26T14:15:26.000Z,4.57
2022-08-26T14:18:07.581Z,5.25
2022-08-26T14:20:49.762Z,4.72
2022-08-26T14:23:26.253Z,4.90
2022-08-26T14:26:00.464Z,4.03
2022-08-26T14:28:35.690Z,4.53
2022-08-26T14:31:10.701Z,5.68
2022-08-26T14:33:45.133Z,3.58
2022-08-26T14:36:38.338Z,5.05
2022-08-26T14:39:14.773Z,4.35
2022-08-26T14:41:54.137Z,2.72
2022-08-26T14:44:34.740Z,3.50
2022-08-26T14:47:09.263Z,5.45
2022-08-26T14:49:47.828Z,3.25
2022-08-26T14:52:21.787Z,3.95
2022-08-26T14:54:56.170Z,4.22
2022-08-26T14:57:29.844Z,2.72
2022-08-26T15:00:07.415Z,2.78
2022-08-26T15:02:41.682Z,5.43
2022-08-26T15:05:18.243Z,3.22
2022-08-26T15:07:52.242Z,3.95
2022-08-26T15:10:34.681Z,4.47
2022-08-26T15:13:09.999Z,6.95
2022-08-26T15:15:56.729Z,2.92
2022-08-26T15:18:31.848Z,5.05
2022-08-26T15:21:16.629Z,4.15
2022-08-26T15:23:51.788Z,3.33
2022-08-26T15:26:26.894Z,2.03
2022-08-26T15:29:04.890Z,3.92
2022-08-26T15:31:44.207Z,6.18
2022-08-26T15:34:23.848Z,3.15
2022-08-26T15:36:57.861Z,3.80
2022-08-26T15:39:31.750Z,2.80
2022-08-26T15:42:09.118Z,4.65
2022-08-26T15:44:45.559Z,3.67
2022-08-26T15:47:32.729Z,4.45
2022-08-26T15:50:21.464Z,4.85
2022-08-26T15:52:57.266Z,3.95
2022-08-26T15:55:31.710Z,3.80
2022-08-26T15:58:13.278Z,7.00
2022-08-26T16:00:46.915Z,3.40
2022-08-26T16:03:33.281Z,4.40
2022-08-26T16:06:08.340Z,4.45
2022-08-26T16:08:45.553Z,3.45
2022-08-26T16:11:21.612Z,3.47
2022-08-26T16:13:56.729Z,3.70
2022-08-26T16:16:31.390Z,3.40
2022-08-26T16:19:18.990Z,3.60
2022-08-26T16:21:53.212Z,3.55
2022-08-26T16:24:30.689Z,3.97
2022-08-26T16:27:16.185Z,3.08
2022-08-26T16:29:50.868Z,3.85
2022-08-26T16:32:38.936Z,2.85
2022-08-26T16:35:18.224Z,3.25
2022-08-26T16:37:52.634Z,2.60
2022-08-26T16:40:27.796Z,2.88
2022-08-26T16:43:10.082Z,4.25
2022-08-26T16:45:54.836Z,3.42
2022-08-26T16:48:30.010Z,3.15
2022-08-26T16:51:07.858Z,3.67
2022-08-26T16:53:42.946Z,2.90
2022-08-26T16:56:24.062Z,3.28
2022-08-26T16:59:12.127Z,3.55
2022-08-26T17:01:49.961Z,4.95
2022-08-26T17:04:29.110Z,3.58
2022-08-26T17:07:13.713Z,3.13
2022-08-26T17:09:59.965Z,3.92
2022-08-26T17:12:42.085Z,4.43
2022-08-26T17:15:18.401Z,4.78
2022-08-26T17:17:55.254Z,3.15
2022-08-26T17:20:32.614Z,3.20
2022-08-26T17:23:11.684Z,4.85
2022-08-26T17:25:49.139Z,3.83
2022-08-26T17:28:29.911Z,2.10
2022-08-26T17:31:15.911Z,3.30
2022-08-26T17:33:53.936Z,2.95
2022-08-26T17:36:28.871Z,2.42
2022-08-26T17:39:12.214Z,2.92
2022-08-26T17:41:49.273Z,2.42
2022-08-26T17:44:36.934Z,3.03
2022-08-26T17:47:25.380Z,2.88
2022-08-26T17:50:01.539Z,2.78
2022-08-26T17:52:40.128Z,2.78
2022-08-26T17:55:23.582Z,2.88
2022-08-26T17:57:57.954Z,3.30
2022-08-26T18:00:45.178Z,4.68
2022-08-26T18:03:24.610Z,2.88
2022-08-26T18:06:06.307Z,3.30
2022-08-26T18:08:44.301Z,3.65
2022-08-26T18:11:24.968Z,2.60
2022-08-26T18:14:04.014Z,3.13
2022-08-26T18:16:45.083Z,2.92
2022-08-26T18:19:47.563Z,2.38
2022-08-26T18:22:32.067Z,1.92
2022-08-26T18:25:08.700Z,3.80
2022-08-26T18:27:54.762Z,3.08
2022-08-26T18:30:43.291Z,1.95
2022-08-26T18:33:24.014Z,1.73
2022-08-26T18:36:35.730Z,2.63
2022-08-26T18:39:18.281Z,3.83
2022-08-26T18:42:04.570Z,2.65
2022-08-26T18:44:41.147Z,2.88
2022-08-26T18:47:20.562Z,1.80
2022-08-26T18:50:09.940Z,4.05
2022-08-26T18:52:44.964Z,3.20
2022-08-26T18:55:26.503Z,3.47
2022-08-26T18:58:06.661Z,2.78
2022-08-26T19:00:48.454Z,3.13
2022-08-26T19:03:23.772Z,3.15
2022-08-26T19:05:59.487Z,2.63
2022-08-26T19:08:39.228Z,2.40
2022-08-26T19:11:32.428Z,4.90
2022-08-26T19:14:28.412Z,2.55
2022-08-26T19:17:17.813Z,3.03
2022-08-26T19:20:10.276Z,3.10
2022-08-26T19:23:10.587Z,3.35
2022-08-26T19:26:10.299Z,1.55
2022-08-26T19:28:52.202Z,2.60
2022-08-26T19:31:28.954Z,3.25
2022-08-26T19:34:25.280Z,7.50
2022-08-26T19:37:12.987Z,2.55
2022-08-26T19:39:53.990Z,3.00
2022-08-26T19:42:54.513Z,3.38
2022-08-26T19:45:33.819Z,3.58
2022-08-26T19:48:11.697Z,4.63
2022-08-26T19:50:49.131Z,2.65
2022-08-26T19:53:23.138Z,4.72
2022-08-26T19:55:57.547Z,2.90
2022-08-26T19:58:31.863Z,1.63
2022-08-26T20:01:06.013Z,2.65
2022-08-26T20:03:41.033Z,2.00
2022-08-26T20:06:18.263Z,2.33
2022-08-26T20:08:53.884Z,2.42
2022-08-26T20:11:31.551Z,2.42
2022-08-26T20:14:13.759Z,2.10
2022-08-26T20:16:50.866Z,3.90
2022-08-26T20:19:46.651Z,2.03
2022-08-26T20:22:23.057Z,3.00
2022-08-26T20:24:57.266Z,2.83
2022-08-26T20:27:38.398Z,1.65
2022-08-26T20:30:14.303Z,1.85
2022-08-26T20:32:53.581Z,1.88
2022-08-26T20:35:27.497Z,1.58
2022-08-26T20:38:05.630Z,1.40
2022-08-26T20:40:44.570Z,4.03
2022-08-26T20:43:21.870Z,4.80
2022-08-26T20:45:57.240Z,2.63
2022-08-26T20:48:34.259Z,2.75
2022-08-26T20:51:15.121Z,1.45
2022-08-26T20:53:51.444Z,2.38
2022-08-26T20:56:29.714Z,3.22
2022-08-26T20:59:07.098Z,2.15
2022-08-26T21:01:42.770Z,3.22
2022-08-26T21:04:25.830Z,3.30
2022-08-26T21:07:01.034Z,2.40
2022-08-26T21:09:43.615Z,3.38
2022-08-26T21:12:19.191Z,1.88
2022-08-26T21:14:53.800Z,2.45
2022-08-26T21:17:33.763Z,2.22
2022-08-26T21:20:11.036Z,2.83
2022-08-26T21:22:51.019Z,2.10
2022-08-26T21:25:28.898Z,2.50
2022-08-26T21:28:05.711Z,1.90
2022-08-26T21:30:47.505Z,3.07
2022-08-26T21:33:25.768Z,2.50
2022-08-26T21:36:04.493Z,1.85
2022-08-26T21:38:40.273Z,3.10
2022-08-26T21:41:22.239Z,1.58
2022-08-26T21:44:03.388Z,2.10
2022-08-26T21:46:38.294Z,2.10
2022-08-26T21:49:16.801Z,2.93
2022-08-26T21:52:11.052Z,2.47
2022-08-26T21:55:08.771Z,1.47
2022-08-26T21:57:45.371Z,2.03
2022-08-26T22:00:20.311Z,2.80
2022-08-26T22:03:01.016Z,2.63
2022-08-26T22:05:51.670Z,1.57
2022-08-26T22:08:28.015Z,2.10
2022-08-26T22:11:10.560Z,2.30
2022-08-26T22:13:53.231Z,1.93
2022-08-26T22:16:50.299Z,2.90
2022-08-26T22:19:59.544Z,2.07
2022-08-26T22:22:46.709Z,1.90
2022-08-26T22:38:49.078Z,1.77
2022-08-26T22:41:30.714Z,2.70
2022-08-26T22:44:09.859Z,2.23
2022-08-26T22:46:45.242Z,1.53
2022-08-26T22:49:26.488Z,1.47
2022-08-26T22:52:00.102Z,1.77
2022-08-26T22:54:35.948Z,3.77
2022-08-26T22:57:09.796Z,2.03
2022-08-26T22:59:43.411Z,2.87
2022-08-26T23:02:17.633Z,1.87
2022-08-26T23:04:52.611Z,2.77
2022-08-26T23:07:26.262Z,1.93
2022-08-26T23:10:02.560Z,2.60
2022-08-26T23:12:39.203Z,1.60
2022-08-26T23:15:13.958Z,3.47
2022-08-26T23:17:57.036Z,2.77
2022-08-26T23:20:33.835Z,2.03
2022-08-26T23:23:08.052Z,2.07
2022-08-26T23:25:43.075Z,3.90
2022-08-26T23:28:16.923Z,2.07
2022-08-26T23:30:51.359Z,2.67
2022-08-26T23:33:45.004Z,3.17
2022-08-26T23:36:22.837Z,2.43
2022-08-26T23:38:56.721Z,2.20
2022-08-26T23:41:32.482Z,3.57
2022-08-26T23:44:07.116Z,2.90
2022-08-26T23:46:40.982Z,2.07
2022-08-26T23:49:15.040Z,7.23
2022-08-26T23:52:06.959Z,1.67
2022-08-26T23:54:42.079Z,2.03
2022-08-26T23:57:19.401Z,2.47
2022-08-26T23:59:53.441Z,2.43
